sensor_id;sensor_type;location;lat;lon;timestamp;temperature;humidity
11615;DHT22;5863;52.832;4.758;2022-09-09T00:02:21;17.10;99.90
11615;DHT22;5863;52.832;4.758;2022-09-09T00:04:59;17.10;99.90
11615;DHT22;5863;52.832;4.758;2022-09-09T00:07:36;17.10;99.90
11615;DHT22;5863;52.832;4.758;2022-09-09T00:10:14;17.10;99.90
11615;DHT22;5863;52.832;4.758;2022-09-09T00:12:50;17.10;99.90
11615;DHT22;5863;52.832;4.758;2022-09-09T00:15:22;17.10;99.90
11615;DHT22;5863;52.832;4.758;2022-09-09T00:17:55;17.20;99.90
11615;DHT22;5863;52.832;4.758;2022-09-09T00:20:30;17.10;99.90
11615;DHT22;5863;52.832;4.758;2022-09-09T00:23:03;17.10;99.90
11615;DHT22;5863;52.832;4.758;2022-09-09T00:25:36;17.00;99.90
11615;DHT22;5863;52.832;4.758;2022-09-09T00:28:13;17.00;99.90
11615;DHT22;5863;52.832;4.758;2022-09-09T00:30:43;17.00;99.90
11615;DHT22;5863;52.832;4.758;2022-09-09T00:33:15;16.90;99.90
11615;DHT22;5863;52.832;4.758;2022-09-09T00:35:48;16.90;99.90
11615;DHT22;5863;52.832;4.758;2022-09-09T00:38:18;16.90;99.90
11615;DHT22;5863;52.832;4.758;2022-09-09T00:40:49;16.90;99.90
11615;DHT22;5863;52.832;4.758;2022-09-09T00:43:25;16.90;99.90
11615;DHT22;5863;52.832;4.758;2022-09-09T00:46:10;16.80;99.90
11615;DHT22;5863;52.832;4.758;2022-09-09T00:48:48;16.80;99.90
11615;DHT22;5863;52.832;4.758;2022-09-09T00:51:26;16.80;99.90
11615;DHT22;5863;52.832;4.758;2022-09-09T00:54:12;16.90;99.90
11615;DHT22;5863;52.832;4.758;2022-09-09T00:56:47;16.90;99.90
11615;DHT22;5863;52.832;4.758;2022-09-09T00:59:25;16.90;99.90
11615;DHT22;5863;52.832;4.758;2022-09-09T01:01:54;16.80;99.90
11615;DHT22;5863;52.832;4.758;2022-09-09T01:04:26;16.80;99.90
11615;DHT22;5863;52.832;4.758;2022-09-09T01:07:03;16.80;99.90
11615;DHT22;5863;52.832;4.758;2022-09-09T01:09:40;16.70;99.90
11615;DHT22;5863;52.832;4.758;2022-09-09T01:12:11;16.70;99.90
11615;DHT22;5863;52.832;4.758;2022-09-09T01:14:43;16.60;99.90
11615;DHT22;5863;52.832;4.758;2022-09-09T01:17:15;16.60;99.90
11615;DHT22;5863;52.832;4.758;2022-09-09T01:19:53;16.50;99.90
11615;DHT22;5863;52.832;4.758;2022-09-09T01:22:33;16.50;99.90
11615;DHT22;5863;52.832;4.758;2022-09-09T01:25:22;16.50;99.90
11615;DHT22;5863;52.832;4.758;2022-09-09T01:27:57;16.40;99.90
11615;DHT22;5863;52.832;4.758;2022-09-09T01:30:26;16.40;99.90
11615;DHT22;5863;52.832;4.758;2022-09-09T01:32:56;16.50;99.90
11615;DHT22;5863;52.832;4.758;2022-09-09T01:35:32;16.40;99.90
11615;DHT22;5863;52.832;4.758;2022-09-09T01:38:01;16.50;99.90
11615;DHT22;5863;52.832;4.758;2022-09-09T01:40:28;16.50;99.90
11615;DHT22;5863;52.832;4.758;2022-09-09T01:42:56;16.50;99.90
11615;DHT22;5863;52.832;4.758;2022-09-09T01:45:24;16.40;99.90
11615;DHT22;5863;52.832;4.758;2022-09-09T01:47:51;16.40;99.90
11615;DHT22;5863;52.832;4.758;2022-09-09T01:50:19;16.40;99.90
11615;DHT22;5863;52.832;4.758;2022-09-09T01:52:50;16.40;99.90
11615;DHT22;5863;52.832;4.758;2022-09-09T01:55:21;16.30;99.90
11615;DHT22;5863;52.832;4.758;2022-09-09T01:57:59;16.30;99.90
11615;DHT22;5863;52.832;4.758;2022-09-09T02:00:32;16.30;99.90
11615;DHT22;5863;52.832;4.758;2022-09-09T02:03:06;16.20;99.90
11615;DHT22;5863;52.832;4.758;2022-09-09T02:05:37;16.30;99.90
11615;DHT22;5863;52.832;4.758;2022-09-09T02:08:06;16.30;99.90
11615;DHT22;5863;52.832;4.758;2022-09-09T02:10:47;16.30;99.90
11615;DHT22;5863;52.832;4.758;2022-09-09T02:13:20;16.30;99.90
11615;DHT22;5863;52.832;4.758;2022-09-09T02:15:53;16.40;99.90
11615;DHT22;5863;52.832;4.758;2022-09-09T02:18:25;16.40;99.90
11615;DHT22;5863;52.832;4.758;2022-09-09T02:20:53;16.40;99.90
11615;DHT22;5863;52.832;4.758;2022-09-09T02:23:21;16.40;99.90
11615;DHT22;5863;52.832;4.758;2022-09-09T02:25:48;16.40;99.90
11615;DHT22;5863;52.832;4.758;2022-09-09T02:28:19;16.40;99.90
11615;DHT22;5863;52.832;4.758;2022-09-09T02:30:50;16.50;99.90
11615;DHT22;5863;52.832;4.758;2022-09-09T02:33:24;16.50;99.90
11615;DHT22;5863;52.832;4.758;2022-09-09T02:35:52;16.40;99.90
11615;DHT22;5863;52.832;4.758;2022-09-09T02:38:24;16.40;99.90
11615;DHT22;5863;52.832;4.758;2022-09-09T02:40:53;16.40;99.90
11615;DHT22;5863;52.832;4.758;2022-09-09T02:43:21;16.40;99.90
11615;DHT22;5863;52.832;4.758;2022-09-09T02:45:55;16.40;99.90
11615;DHT22;5863;52.832;4.758;2022-09-09T02:48:31;16.40;99.90
11615;DHT22;5863;52.832;4.758;2022-09-09T02:51:04;16.40;99.90
11615;DHT22;5863;52.832;4.758;2022-09-09T02:53:40;16.40;99.90
11615;DHT22;5863;52.832;4.758;2022-09-09T02:56:15;16.40;99.90
11615;DHT22;5863;52.832;4.758;2022-09-09T02:58:44;16.40;99.90
11615;DHT22;5863;52.832;4.758;2022-09-09T03:01:11;16.50;99.90
11615;DHT22;5863;52.832;4.758;2022-09-09T03:03:39;16.40;99.90
11615;DHT22;5863;52.832;4.758;2022-09-09T03:06:07;16.40;99.90
11615;DHT22;5863;52.832;4.758;2022-09-09T03:08:33;16.40;99.90
11615;DHT22;5863;52.832;4.758;2022-09-09T03:11:01;16.40;99.90
11615;DHT22;5863;52.832;4.758;2022-09-09T03:13:27;16.30;99.90
11615;DHT22;5863;52.832;4.758;2022-09-09T03:15:55;16.30;99.90
11615;DHT22;5863;52.832;4.758;2022-09-09T03:18:22;16.30;99.90
11615;DHT22;5863;52.832;4.758;2022-09-09T03:20:49;16.30;99.90
11615;DHT22;5863;52.832;4.758;2022-09-09T03:23:16;16.30;99.90
11615;DHT22;5863;52.832;4.758;2022-09-09T03:25:46;16.30;99.90
11615;DHT22;5863;52.832;4.758;2022-09-09T03:28:14;16.20;99.90
11615;DHT22;5863;52.832;4.758;2022-09-09T03:30:41;16.20;99.90
11615;DHT22;5863;52.832;4.758;2022-09-09T03:33:09;16.20;99.90
11615;DHT22;5863;52.832;4.758;2022-09-09T03:35:36;16.20;99.90
11615;DHT22;5863;52.832;4.758;2022-09-09T03:38:03;16.20;99.90
11615;DHT22;5863;52.832;4.758;2022-09-09T03:40:29;16.20;99.90
11615;DHT22;5863;52.832;4.758;2022-09-09T03:42:57;16.20;99.90
11615;DHT22;5863;52.832;4.758;2022-09-09T03:45:23;16.20;99.90
11615;DHT22;5863;52.832;4.758;2022-09-09T03:47:50;16.30;99.90
11615;DHT22;5863;52.832;4.758;2022-09-09T03:50:18;16.30;99.90
11615;DHT22;5863;52.832;4.758;2022-09-09T03:52:44;16.30;99.90
11615;DHT22;5863;52.832;4.758;2022-09-09T03:55:12;16.30;99.90
11615;DHT22;5863;52.832;4.758;2022-09-09T03:57:38;16.30;99.90
11615;DHT22;5863;52.832;4.758;2022-09-09T04:00:07;16.30;99.90
11615;DHT22;5863;52.832;4.758;2022-09-09T04:02:34;16.30;99.90
11615;DHT22;5863;52.832;4.758;2022-09-09T04:05:00;16.30;99.90
11615;DHT22;5863;52.832;4.758;2022-09-09T04:07:28;16.30;99.90
11615;DHT22;5863;52.832;4.758;2022-09-09T04:09:55;16.30;99.90
11615;DHT22;5863;52.832;4.758;2022-09-09T04:12:22;16.30;99.90
11615;DHT22;5863;52.832;4.758;2022-09-09T04:14:49;16.30;99.90
11615;DHT22;5863;52.832;4.758;2022-09-09T04:17:15;16.30;99.90
11615;DHT22;5863;52.832;4.758;2022-09-09T04:19:42;16.20;99.90
11615;DHT22;5863;52.832;4.758;2022-09-09T04:22:09;16.20;99.90
11615;DHT22;5863;52.832;4.758;2022-09-09T04:24:37;16.30;99.90
11615;DHT22;5863;52.832;4.758;2022-09-09T04:27:04;16.20;99.90
11615;DHT22;5863;52.832;4.758;2022-09-09T04:29:31;16.20;99.90
11615;DHT22;5863;52.832;4.758;2022-09-09T04:31:57;16.20;99.90
11615;DHT22;5863;52.832;4.758;2022-09-09T04:34:24;16.10;99.90
11615;DHT22;5863;52.832;4.758;2022-09-09T04:36:51;16.20;99.90
11615;DHT22;5863;52.832;4.758;2022-09-09T04:39:18;16.20;99.90
11615;DHT22;5863;52.832;4.758;2022-09-09T04:41:46;16.20;99.90
11615;DHT22;5863;52.832;4.758;2022-09-09T04:44:12;16.10;99.90
11615;DHT22;5863;52.832;4.758;2022-09-09T04:46:39;16.10;99.90
11615;DHT22;5863;52.832;4.758;2022-09-09T04:49:06;16.10;99.90
11615;DHT22;5863;52.832;4.758;2022-09-09T04:51:33;16.00;99.90
11615;DHT22;5863;52.832;4.758;2022-09-09T04:53:59;16.00;99.90
11615;DHT22;5863;52.832;4.758;2022-09-09T04:56:26;16.10;99.90
11615;DHT22;5863;52.832;4.758;2022-09-09T04:58:54;16.10;99.90
11615;DHT22;5863;52.832;4.758;2022-09-09T05:01:22;16.10;99.90
11615;DHT22;5863;52.832;4.758;2022-09-09T05:03:50;16.10;99.90
11615;DHT22;5863;52.832;4.758;2022-09-09T05:06:19;16.00;99.90
11615;DHT22;5863;52.832;4.758;2022-09-09T05:08:46;16.00;99.90
11615;DHT22;5863;52.832;4.758;2022-09-09T05:11:15;16.00;99.90
11615;DHT22;5863;52.832;4.758;2022-09-09T05:13:42;15.90;99.90
11615;DHT22;5863;52.832;4.758;2022-09-09T05:16:10;15.90;99.90
11615;DHT22;5863;52.832;4.758;2022-09-09T05:18:37;15.90;99.90
11615;DHT22;5863;52.832;4.758;2022-09-09T05:21:04;15.90;99.90
11615;DHT22;5863;52.832;4.758;2022-09-09T05:23:31;15.90;99.90
11615;DHT22;5863;52.832;4.758;2022-09-09T05:25:59;15.90;99.90
11615;DHT22;5863;52.832;4.758;2022-09-09T05:28:27;15.80;99.90
11615;DHT22;5863;52.832;4.758;2022-09-09T05:30:58;15.90;99.90
11615;DHT22;5863;52.832;4.758;2022-09-09T05:33:27;15.80;99.90
11615;DHT22;5863;52.832;4.758;2022-09-09T05:35:58;15.90;99.90
11615;DHT22;5863;52.832;4.758;2022-09-09T05:38:25;15.90;99.90
11615;DHT22;5863;52.832;4.758;2022-09-09T05:40:52;16.00;99.90
11615;DHT22;5863;52.832;4.758;2022-09-09T05:43:19;16.00;99.90
11615;DHT22;5863;52.832;4.758;2022-09-09T05:45:46;16.00;99.90
11615;DHT22;5863;52.832;4.758;2022-09-09T05:48:13;16.10;99.90
11615;DHT22;5863;52.832;4.758;2022-09-09T05:50:42;16.20;99.90
11615;DHT22;5863;52.832;4.758;2022-09-09T05:53:11;16.30;99.90
11615;DHT22;5863;52.832;4.758;2022-09-09T05:55:38;16.40;99.90
11615;DHT22;5863;52.832;4.758;2022-09-09T05:58:04;16.40;99.90
11615;DHT22;5863;52.832;4.758;2022-09-09T06:00:31;16.50;99.90
11615;DHT22;5863;52.832;4.758;2022-09-09T06:02:58;16.60;99.90
11615;DHT22;5863;52.832;4.758;2022-09-09T06:05:25;16.70;99.90
11615;DHT22;5863;52.832;4.758;2022-09-09T06:07:55;16.80;99.90
11615;DHT22;5863;52.832;4.758;2022-09-09T06:10:21;16.90;99.90
11615;DHT22;5863;52.832;4.758;2022-09-09T06:12:48;17.00;99.90
11615;DHT22;5863;52.832;4.758;2022-09-09T06:15:15;17.10;99.90
11615;DHT22;5863;52.832;4.758;2022-09-09T06:17:42;17.30;99.90
11615;DHT22;5863;52.832;4.758;2022-09-09T06:20:10;17.60;99.90
11615;DHT22;5863;52.832;4.758;2022-09-09T06:22:39;17.80;99.90
11615;DHT22;5863;52.832;4.758;2022-09-09T06:25:08;18.00;99.90
11615;DHT22;5863;52.832;4.758;2022-09-09T06:27:35;18.20;99.90
11615;DHT22;5863;52.832;4.758;2022-09-09T06:30:02;18.30;99.90
11615;DHT22;5863;52.832;4.758;2022-09-09T06:32:29;18.30;99.90
11615;DHT22;5863;52.832;4.758;2022-09-09T06:34:56;18.30;99.90
11615;DHT22;5863;52.832;4.758;2022-09-09T06:37:23;18.20;99.90
11615;DHT22;5863;52.832;4.758;2022-09-09T06:39:53;18.00;99.90
11615;DHT22;5863;52.832;4.758;2022-09-09T06:42:22;18.00;99.90
11615;DHT22;5863;52.832;4.758;2022-09-09T06:44:49;17.90;99.90
11615;DHT22;5863;52.832;4.758;2022-09-09T06:47:15;17.90;99.90
11615;DHT22;5863;52.832;4.758;2022-09-09T06:49:42;17.80;99.90
11615;DHT22;5863;52.832;4.758;2022-09-09T06:52:09;17.90;99.90
11615;DHT22;5863;52.832;4.758;2022-09-09T06:54:35;17.70;99.90
11615;DHT22;5863;52.832;4.758;2022-09-09T06:57:02;17.70;99.90
11615;DHT22;5863;52.832;4.758;2022-09-09T06:59:33;17.70;99.90
11615;DHT22;5863;52.832;4.758;2022-09-09T07:02:00;17.60;99.90
11615;DHT22;5863;52.832;4.758;2022-09-09T07:04:27;17.70;99.90
11615;DHT22;5863;52.832;4.758;2022-09-09T07:06:53;17.80;99.90
11615;DHT22;5863;52.832;4.758;2022-09-09T07:09:20;17.80;99.90
11615;DHT22;5863;52.832;4.758;2022-09-09T07:11:49;17.90;99.90
11615;DHT22;5863;52.832;4.758;2022-09-09T07:14:16;17.90;99.90
11615;DHT22;5863;52.832;4.758;2022-09-09T07:16:45;18.00;99.90
11615;DHT22;5863;52.832;4.758;2022-09-09T07:19:12;18.10;99.90
11615;DHT22;5863;52.832;4.758;2022-09-09T07:21:39;18.20;99.90
11615;DHT22;5863;52.832;4.758;2022-09-09T07:24:07;18.30;99.90
11615;DHT22;5863;52.832;4.758;2022-09-09T07:26:35;18.30;99.90
11615;DHT22;5863;52.832;4.758;2022-09-09T07:29:02;18.30;99.90
11615;DHT22;5863;52.832;4.758;2022-09-09T07:31:30;18.30;99.90
11615;DHT22;5863;52.832;4.758;2022-09-09T07:33:59;18.30;99.90
11615;DHT22;5863;52.832;4.758;2022-09-09T07:36:27;18.40;99.90
11615;DHT22;5863;52.832;4.758;2022-09-09T07:38:56;18.50;99.90
11615;DHT22;5863;52.832;4.758;2022-09-09T07:41:25;18.80;99.90
11615;DHT22;5863;52.832;4.758;2022-09-09T07:43:53;18.90;99.90
11615;DHT22;5863;52.832;4.758;2022-09-09T07:46:22;19.10;99.90
11615;DHT22;5863;52.832;4.758;2022-09-09T07:48:50;19.30;99.90
11615;DHT22;5863;52.832;4.758;2022-09-09T07:51:20;19.40;99.90
11615;DHT22;5863;52.832;4.758;2022-09-09T07:53:48;19.40;99.90
11615;DHT22;5863;52.832;4.758;2022-09-09T07:56:18;19.70;99.90
11615;DHT22;5863;52.832;4.758;2022-09-09T07:58:47;20.50;99.90
11615;DHT22;5863;52.832;4.758;2022-09-09T08:01:19;21.00;99.90
11615;DHT22;5863;52.832;4.758;2022-09-09T08:03:51;20.90;99.90
11615;DHT22;5863;52.832;4.758;2022-09-09T08:06:20;20.60;99.90
11615;DHT22;5863;52.832;4.758;2022-09-09T08:08:50;20.30;99.90
11615;DHT22;5863;52.832;4.758;2022-09-09T08:11:17;20.10;99.90
11615;DHT22;5863;52.832;4.758;2022-09-09T08:13:44;19.90;99.90
11615;DHT22;5863;52.832;4.758;2022-09-09T08:16:13;19.90;99.90
11615;DHT22;5863;52.832;4.758;2022-09-09T08:18:40;19.90;99.90
11615;DHT22;5863;52.832;4.758;2022-09-09T08:21:08;20.00;99.90
11615;DHT22;5863;52.832;4.758;2022-09-09T08:23:39;20.00;99.90
11615;DHT22;5863;52.832;4.758;2022-09-09T08:26:09;20.10;99.90
11615;DHT22;5863;52.832;4.758;2022-09-09T08:28:36;20.10;99.90
11615;DHT22;5863;52.832;4.758;2022-09-09T08:31:08;20.10;99.90
11615;DHT22;5863;52.832;4.758;2022-09-09T08:33:34;20.00;99.90
11615;DHT22;5863;52.832;4.758;2022-09-09T08:36:04;19.90;99.90
11615;DHT22;5863;52.832;4.758;2022-09-09T08:38:30;19.80;99.90
11615;DHT22;5863;52.832;4.758;2022-09-09T08:41:07;19.70;99.90
11615;DHT22;5863;52.832;4.758;2022-09-09T08:43:37;19.60;99.90
11615;DHT22;5863;52.832;4.758;2022-09-09T08:46:11;19.60;99.90
11615;DHT22;5863;52.832;4.758;2022-09-09T08:48:49;19.50;99.90
11615;DHT22;5863;52.832;4.758;2022-09-09T08:51:20;19.40;99.90
11615;DHT22;5863;52.832;4.758;2022-09-09T08:53:49;19.30;99.90
11615;DHT22;5863;52.832;4.758;2022-09-09T08:56:21;19.20;99.90
11615;DHT22;5863;52.832;4.758;2022-09-09T08:58:50;19.20;99.90
11615;DHT22;5863;52.832;4.758;2022-09-09T09:01:39;19.20;99.90
11615;DHT22;5863;52.832;4.758;2022-09-09T09:04:20;19.10;99.90
11615;DHT22;5863;52.832;4.758;2022-09-09T09:06:58;19.00;99.90
11615;DHT22;5863;52.832;4.758;2022-09-09T09:09:38;18.90;99.90
11615;DHT22;5863;52.832;4.758;2022-09-09T09:12:16;18.90;99.90
11615;DHT22;5863;52.832;4.758;2022-09-09T09:14:46;18.90;99.90
11615;DHT22;5863;52.832;4.758;2022-09-09T09:17:15;18.80;99.90
11615;DHT22;5863;52.832;4.758;2022-09-09T09:19:43;18.90;99.90
11615;DHT22;5863;52.832;4.758;2022-09-09T09:22:16;18.80;99.90
11615;DHT22;5863;52.832;4.758;2022-09-09T09:24:50;18.80;99.90
11615;DHT22;5863;52.832;4.758;2022-09-09T09:27:33;18.80;99.90
11615;DHT22;5863;52.832;4.758;2022-09-09T09:30:05;18.70;99.90
11615;DHT22;5863;52.832;4.758;2022-09-09T09:32:34;18.70;99.90
11615;DHT22;5863;52.832;4.758;2022-09-09T09:35:06;18.60;99.90
11615;DHT22;5863;52.832;4.758;2022-09-09T09:37:36;18.60;99.90
11615;DHT22;5863;52.832;4.758;2022-09-09T09:40:09;18.50;99.90
11615;DHT22;5863;52.832;4.758;2022-09-09T09:42:38;18.50;99.90
11615;DHT22;5863;52.832;4.758;2022-09-09T09:45:17;18.40;99.90
11615;DHT22;5863;52.832;4.758;2022-09-09T09:47:58;18.30;99.90
11615;DHT22;5863;52.832;4.758;2022-09-09T09:50:24;18.30;99.90
11615;DHT22;5863;52.832;4.758;2022-09-09T09:52:55;18.30;99.90
11615;DHT22;5863;52.832;4.758;2022-09-09T09:55:23;18.30;99.90
11615;DHT22;5863;52.832;4.758;2022-09-09T09:57:51;18.30;99.90
11615;DHT22;5863;52.832;4.758;2022-09-09T10:00:21;18.40;99.90
11615;DHT22;5863;52.832;4.758;2022-09-09T10:02:49;18.40;99.90
11615;DHT22;5863;52.832;4.758;2022-09-09T10:05:19;18.50;99.90
11615;DHT22;5863;52.832;4.758;2022-09-09T10:07:47;18.50;99.90
11615;DHT22;5863;52.832;4.758;2022-09-09T10:10:19;18.60;99.90
11615;DHT22;5863;52.832;4.758;2022-09-09T10:12:57;18.80;99.90
11615;DHT22;5863;52.832;4.758;2022-09-09T10:15:36;18.90;99.90
11615;DHT22;5863;52.832;4.758;2022-09-09T10:18:15;18.90;99.90
11615;DHT22;5863;52.832;4.758;2022-09-09T10:20:51;18.80;99.90
11615;DHT22;5863;52.832;4.758;2022-09-09T10:23:41;18.80;99.90
11615;DHT22;5863;52.832;4.758;2022-09-09T10:26:23;18.70;99.90
11615;DHT22;5863;52.832;4.758;2022-09-09T10:31:55;18.60;99.90
11615;DHT22;5863;52.832;4.758;2022-09-09T10:34:40;18.60;99.90
11615;DHT22;5863;52.832;4.758;2022-09-09T10:37:18;18.70;99.90
11615;DHT22;5863;52.832;4.758;2022-09-09T10:39:51;18.80;99.90
11615;DHT22;5863;52.832;4.758;2022-09-09T10:42:26;18.90;99.90
11615;DHT22;5863;52.832;4.758;2022-09-09T10:45:07;18.90;99.90
11615;DHT22;5863;52.832;4.758;2022-09-09T10:47:53;19.00;99.90
11615;DHT22;5863;52.832;4.758;2022-09-09T10:50:46;19.20;99.90
11615;DHT22;5863;52.832;4.758;2022-09-09T10:53:18;19.50;99.90
11615;DHT22;5863;52.832;4.758;2022-09-09T10:55:51;19.60;99.90
11615;DHT22;5863;52.832;4.758;2022-09-09T10:58:23;19.70;99.90
11615;DHT22;5863;52.832;4.758;2022-09-09T11:00:56;19.70;99.90
11615;DHT22;5863;52.832;4.758;2022-09-09T11:03:27;19.80;99.90
11615;DHT22;5863;52.832;4.758;2022-09-09T11:05:58;19.80;99.90
11615;DHT22;5863;52.832;4.758;2022-09-09T11:08:29;19.80;99.90
11615;DHT22;5863;52.832;4.758;2022-09-09T11:11:00;19.80;99.90
11615;DHT22;5863;52.832;4.758;2022-09-09T11:13:35;19.70;99.90
11615;DHT22;5863;52.832;4.758;2022-09-09T11:16:17;19.60;99.90
11615;DHT22;5863;52.832;4.758;2022-09-09T11:18:46;19.40;99.90
11615;DHT22;5863;52.832;4.758;2022-09-09T11:21:19;19.30;99.90
11615;DHT22;5863;52.832;4.758;2022-09-09T11:23:53;19.40;99.90
11615;DHT22;5863;52.832;4.758;2022-09-09T11:26:30;19.40;99.90
11615;DHT22;5863;52.832;4.758;2022-09-09T11:29:16;19.30;99.90
11615;DHT22;5863;52.832;4.758;2022-09-09T11:31:57;19.30;99.90
11615;DHT22;5863;52.832;4.758;2022-09-09T11:34:34;19.40;99.90
11615;DHT22;5863;52.832;4.758;2022-09-09T11:40:21;19.40;99.90
11615;DHT22;5863;52.832;4.758;2022-09-09T11:43:01;19.60;99.90
11615;DHT22;5863;52.832;4.758;2022-09-09T11:45:29;19.80;99.90
11615;DHT22;5863;52.832;4.758;2022-09-09T11:47:58;19.90;99.90
11615;DHT22;5863;52.832;4.758;2022-09-09T11:50:34;20.00;99.90
11615;DHT22;5863;52.832;4.758;2022-09-09T11:53:21;20.00;99.90
11615;DHT22;5863;52.832;4.758;2022-09-09T11:56:00;20.00;99.90
11615;DHT22;5863;52.832;4.758;2022-09-09T11:58:31;19.90;99.90
11615;DHT22;5863;52.832;4.758;2022-09-09T12:01:00;19.90;99.90
11615;DHT22;5863;52.832;4.758;2022-09-09T12:03:42;19.90;99.90
11615;DHT22;5863;52.832;4.758;2022-09-09T12:06:14;19.90;99.90
11615;DHT22;5863;52.832;4.758;2022-09-09T12:08:44;19.80;99.90
11615;DHT22;5863;52.832;4.758;2022-09-09T12:11:11;19.80;99.90
11615;DHT22;5863;52.832;4.758;2022-09-09T12:13:38;19.80;99.90
11615;DHT22;5863;52.832;4.758;2022-09-09T12:16:32;19.80;99.90
11615;DHT22;5863;52.832;4.758;2022-09-09T12:19:14;19.80;99.90
11615;DHT22;5863;52.832;4.758;2022-09-09T12:21:49;19.70;99.90
11615;DHT22;5863;52.832;4.758;2022-09-09T12:24:23;19.60;99.90
11615;DHT22;5863;52.832;4.758;2022-09-09T12:26:58;19.50;99.90
11615;DHT22;5863;52.832;4.758;2022-09-09T12:29:32;19.50;99.90
11615;DHT22;5863;52.832;4.758;2022-09-09T12:32:05;19.50;99.90
11615;DHT22;5863;52.832;4.758;2022-09-09T12:34:38;19.40;99.90
11615;DHT22;5863;52.832;4.758;2022-09-09T12:37:14;19.40;99.90
11615;DHT22;5863;52.832;4.758;2022-09-09T12:39:45;19.40;99.90
11615;DHT22;5863;52.832;4.758;2022-09-09T12:42:18;19.20;99.90
11615;DHT22;5863;52.832;4.758;2022-09-09T12:44:56;19.10;99.90
11615;DHT22;5863;52.832;4.758;2022-09-09T12:47:27;19.10;99.90
11615;DHT22;5863;52.832;4.758;2022-09-09T12:49:57;18.90;99.90
11615;DHT22;5863;52.832;4.758;2022-09-09T12:52:27;18.90;99.90
11615;DHT22;5863;52.832;4.758;2022-09-09T12:54:57;18.90;99.90
11615;DHT22;5863;52.832;4.758;2022-09-09T12:57:26;19.00;99.90
11615;DHT22;5863;52.832;4.758;2022-09-09T13:00:05;19.10;99.90
11615;DHT22;5863;52.832;4.758;2022-09-09T13:02:32;19.30;99.90
11615;DHT22;5863;52.832;4.758;2022-09-09T13:05:14;19.40;99.90
11615;DHT22;5863;52.832;4.758;2022-09-09T13:07:41;19.60;99.90
11615;DHT22;5863;52.832;4.758;2022-09-09T13:10:26;19.60;99.90
11615;DHT22;5863;52.832;4.758;2022-09-09T13:12:54;19.60;99.90
11615;DHT22;5863;52.832;4.758;2022-09-09T13:15:24;19.60;99.90
11615;DHT22;5863;52.832;4.758;2022-09-09T13:17:55;19.60;99.90
11615;DHT22;5863;52.832;4.758;2022-09-09T13:20:24;19.50;99.90
11615;DHT22;5863;52.832;4.758;2022-09-09T13:22:52;19.60;99.90
11615;DHT22;5863;52.832;4.758;2022-09-09T13:25:23;19.60;99.90
11615;DHT22;5863;52.832;4.758;2022-09-09T13:27:57;19.70;99.90
11615;DHT22;5863;52.832;4.758;2022-09-09T13:30:26;19.80;99.90
11615;DHT22;5863;52.832;4.758;2022-09-09T13:33:20;19.80;99.90
11615;DHT22;5863;52.832;4.758;2022-09-09T13:35:51;19.90;99.90
11615;DHT22;5863;52.832;4.758;2022-09-09T13:38:19;20.00;99.90
11615;DHT22;5863;52.832;4.758;2022-09-09T13:40:55;20.00;99.90
11615;DHT22;5863;52.832;4.758;2022-09-09T13:43:25;20.00;99.90
11615;DHT22;5863;52.832;4.758;2022-09-09T13:45:54;20.00;99.90
11615;DHT22;5863;52.832;4.758;2022-09-09T13:48:22;20.00;99.90
11615;DHT22;5863;52.832;4.758;2022-09-09T13:50:56;19.90;99.90
11615;DHT22;5863;52.832;4.758;2022-09-09T13:53:23;19.90;99.90
11615;DHT22;5863;52.832;4.758;2022-09-09T13:55:50;19.90;99.90
11615;DHT22;5863;52.832;4.758;2022-09-09T13:58:18;19.90;99.90
11615;DHT22;5863;52.832;4.758;2022-09-09T14:00:45;19.90;99.90
11615;DHT22;5863;52.832;4.758;2022-09-09T14:03:12;19.90;99.90
11615;DHT22;5863;52.832;4.758;2022-09-09T14:05:39;19.90;99.90
11615;DHT22;5863;52.832;4.758;2022-09-09T14:08:15;19.90;99.90
11615;DHT22;5863;52.832;4.758;2022-09-09T14:10:42;19.80;99.90
11615;DHT22;5863;52.832;4.758;2022-09-09T14:13:09;19.70;99.90
11615;DHT22;5863;52.832;4.758;2022-09-09T14:15:37;19.80;99.90
11615;DHT22;5863;52.832;4.758;2022-09-09T14:18:04;19.80;99.90
11615;DHT22;5863;52.832;4.758;2022-09-09T14:20:31;19.80;99.90
11615;DHT22;5863;52.832;4.758;2022-09-09T14:22:57;19.80;99.90
11615;DHT22;5863;52.832;4.758;2022-09-09T14:25:26;19.80;99.90
11615;DHT22;5863;52.832;4.758;2022-09-09T14:27:52;19.80;99.90
11615;DHT22;5863;52.832;4.758;2022-09-09T14:30:19;19.80;99.90
11615;DHT22;5863;52.832;4.758;2022-09-09T14:32:46;19.80;99.90
11615;DHT22;5863;52.832;4.758;2022-09-09T14:35:12;19.70;99.90
11615;DHT22;5863;52.832;4.758;2022-09-09T14:37:39;19.80;99.90
11615;DHT22;5863;52.832;4.758;2022-09-09T14:40:06;19.80;99.90
11615;DHT22;5863;52.832;4.758;2022-09-09T14:42:35;19.70;99.90
11615;DHT22;5863;52.832;4.758;2022-09-09T14:45:01;19.60;99.90
11615;DHT22;5863;52.832;4.758;2022-09-09T14:47:28;19.60;99.90
11615;DHT22;5863;52.832;4.758;2022-09-09T14:49:55;19.50;99.90
11615;DHT22;5863;52.832;4.758;2022-09-09T14:52:23;19.50;99.90
11615;DHT22;5863;52.832;4.758;2022-09-09T14:54:51;19.40;99.90
11615;DHT22;5863;52.832;4.758;2022-09-09T14:57:17;19.40;99.90
11615;DHT22;5863;52.832;4.758;2022-09-09T14:59:46;19.40;99.90
11615;DHT22;5863;52.832;4.758;2022-09-09T15:02:14;19.40;99.90
11615;DHT22;5863;52.832;4.758;2022-09-09T15:04:41;19.20;99.90
11615;DHT22;5863;52.832;4.758;2022-09-09T15:07:08;19.10;99.90
11615;DHT22;5863;52.832;4.758;2022-09-09T15:09:36;19.10;99.90
11615;DHT22;5863;52.832;4.758;2022-09-09T15:12:03;19.00;99.90
11615;DHT22;5863;52.832;4.758;2022-09-09T15:14:31;19.00;99.90
11615;DHT22;5863;52.832;4.758;2022-09-09T15:16:59;18.90;99.90
11615;DHT22;5863;52.832;4.758;2022-09-09T15:19:26;18.90;99.90
11615;DHT22;5863;52.832;4.758;2022-09-09T15:21:53;18.90;99.90
11615;DHT22;5863;52.832;4.758;2022-09-09T15:24:20;18.80;99.90
11615;DHT22;5863;52.832;4.758;2022-09-09T15:26:47;18.70;99.90
11615;DHT22;5863;52.832;4.758;2022-09-09T15:29:14;18.70;99.90
11615;DHT22;5863;52.832;4.758;2022-09-09T15:31:41;18.80;99.90
11615;DHT22;5863;52.832;4.758;2022-09-09T15:34:09;18.70;99.90
11615;DHT22;5863;52.832;4.758;2022-09-09T15:36:37;18.80;99.90
11615;DHT22;5863;52.832;4.758;2022-09-09T15:39:06;18.70;99.90
11615;DHT22;5863;52.832;4.758;2022-09-09T15:41:35;18.60;99.90
11615;DHT22;5863;52.832;4.758;2022-09-09T15:44:02;18.70;99.90
11615;DHT22;5863;52.832;4.758;2022-09-09T15:46:31;18.70;99.90
11615;DHT22;5863;52.832;4.758;2022-09-09T15:49:02;18.80;99.90
11615;DHT22;5863;52.832;4.758;2022-09-09T15:51:30;18.70;99.90
11615;DHT22;5863;52.832;4.758;2022-09-09T15:53:58;18.70;99.90
11615;DHT22;5863;52.832;4.758;2022-09-09T15:56:25;18.60;99.90
11615;DHT22;5863;52.832;4.758;2022-09-09T15:58:55;18.70;99.90
11615;DHT22;5863;52.832;4.758;2022-09-09T16:01:22;18.70;99.90
11615;DHT22;5863;52.832;4.758;2022-09-09T16:03:49;18.70;99.90
11615;DHT22;5863;52.832;4.758;2022-09-09T16:06:18;18.70;99.90
11615;DHT22;5863;52.832;4.758;2022-09-09T16:08:49;18.60;99.90
11615;DHT22;5863;52.832;4.758;2022-09-09T16:11:17;18.60;99.90
11615;DHT22;5863;52.832;4.758;2022-09-09T16:13:45;18.70;99.90